Time;durP1;ratioP1;P1;durP2;ratioP2;P2;SDS_P1;SDS_P2;PMS_P1;PMS_P2;Temp;Humidity;BMP_temperature;BMP_pressure;BME280_temperature;BME280_humidity;BME280_pressure;Samples;Min_cycle;Max_cycle;Signal;HPM_P1;HPM_P2
2021/04/10 00:01:15;;;;;;;9.07;8.23;;;12.50;99.90;;;;;;6086996;23;20425;-81
2021/04/10 00:07:43;;;;;;;15.57;9.43;;;12.20;99.90;;;;;;6150613;23;20536;-81
2021/04/10 00:10:37;;;;;;;11.50;8.47;;;12.20;99.90;;;;;;6169382;23;20408;-78
2021/04/10 00:13:39;;;;;;;9.93;8.93;;;12.10;99.90;;;;;;6186216;23;20480;-80
2021/04/10 00:16:53;;;;;;;12.70;9.93;;;12.10;99.90;;;;;;6186253;23;20362;-78
2021/04/10 00:20:01;;;;;;;11.17;9.47;;;11.90;99.90;;;;;;6194468;23;20417;-79
2021/04/10 00:23:02;;;;;;;10.60;9.50;;;11.70;99.90;;;;;;6168617;23;20441;-78
2021/04/10 00:26:08;;;;;;;12.23;9.63;;;11.80;99.90;;;;;;6165744;23;20512;-80
2021/04/10 00:32:47;;;;;;;10.67;9.60;;;11.90;99.90;;;;;;6165855;23;20762;-82
2021/04/10 00:35:39;;;;;;;12.30;9.93;;;11.70;99.90;;;;;;6141655;23;20394;-84
2021/04/10 00:38:10;;;;;;;12.00;10.70;;;11.40;99.90;;;;;;6167315;23;20429;-78
2021/04/10 00:41:06;;;;;;;13.17;11.87;;;11.50;99.90;;;;;;6202998;23;20417;-78
2021/04/10 00:44:25;;;;;;;13.70;10.73;;;11.30;99.90;;;;;;6198076;23;20410;-81
2021/04/10 00:47:14;;;;;;;12.57;11.00;;;11.30;99.90;;;;;;6185978;23;20996;-81
2021/04/10 00:50:33;;;;;;;12.03;10.83;;;11.40;99.90;;;;;;6064191;23;20394;-82
2021/04/10 00:53:27;;;;;;;11.57;10.30;;;11.30;99.90;;;;;;6054784;22;21203;-80
2021/04/10 00:56:24;;;;;;;13.83;12.23;;;11.30;99.90;;;;;;6188569;23;20476;-79
2021/04/10 01:01:55;;;;;;;13.67;11.93;;;11.30;99.90;;;;;;6228962;23;20439;-79
2021/04/10 01:04:53;;;;;;;14.70;12.60;;;11.30;99.90;;;;;;6179697;23;20448;-78
2021/04/10 01:07:43;;;;;;;13.00;11.30;;;11.20;99.90;;;;;;6195215;23;20465;-79
2021/04/10 01:10:27;;;;;;;13.10;11.70;;;11.10;99.90;;;;;;6173628;23;20418;-78
2021/04/10 01:17:06;;;;;;;13.03;11.60;;;11.40;99.90;;;;;;6079765;23;20434;-78
2021/04/10 01:20:20;;;;;;;14.60;12.93;;;11.40;99.90;;;;;;6077260;23;20418;-81
2021/04/10 01:23:30;;;;;;;16.03;12.67;;;11.40;99.90;;;;;;5963716;23;20425;-83
2021/04/10 01:26:25;;;;;;;14.07;12.70;;;11.60;99.90;;;;;;6039229;23;20417;-80
2021/04/10 01:29:23;;;;;;;;;;;;;;;;;;;;;
2021/04/10 01:32:35;;;;;;;14.67;13.17;;;11.40;99.90;;;;;;6061047;23;20422;-81
2021/04/10 01:38:49;;;;;;;15.67;13.20;;;11.20;99.90;;;;;;6046791;23;21356;-80
2021/04/10 01:42:29;;;;;;;17.83;13.67;;;11.30;99.90;;;;;;6072352;23;20494;-81
2021/04/10 01:49:17;;;;;;;14.50;12.97;;;11.30;99.90;;;;;;6085910;23;20449;-80
2021/04/10 01:52:17;;;;;;;13.53;11.70;;;11.30;99.90;;;;;;6061651;23;20429;-80
2021/04/10 01:55:03;;;;;;;12.30;11.03;;;11.20;99.90;;;;;;6090232;23;20448;-80
2021/04/10 01:57:55;;;;;;;12.37;11.17;;;11.00;99.90;;;;;;6152810;23;20418;-80
2021/04/10 02:00:49;;;;;;;11.90;10.80;;;11.00;99.90;;;;;;6136831;23;20511;-81
2021/04/10 02:04:05;;;;;;;11.30;10.20;;;10.90;99.90;;;;;;6149225;23;20433;-81
2021/04/10 02:07:06;;;;;;;;;;;;;;;;;;;;;
2021/04/10 02:13:38;;;;;;;13.90;11.87;;;11.50;99.90;;;;;;6141893;23;20592;-79
2021/04/10 02:16:37;;;;;;;12.17;10.93;;;11.50;99.90;;;;;;6141685;23;20407;-83
2021/04/10 02:19:33;;;;;;;13.30;11.90;;;11.40;99.90;;;;;;6194606;23;20399;-79
2021/04/10 02:22:56;;;;;;;13.57;12.27;;;11.50;99.90;;;;;;6170298;23;20402;-78
2021/04/10 02:25:48;;;;;;;13.90;12.20;;;11.30;99.90;;;;;;6144582;23;20410;-81
2021/04/10 02:28:49;;;;;;;12.60;11.40;;;11.30;99.90;;;;;;6159054;23;20457;-81
2021/04/10 02:32:05;;;;;;;14.57;13.03;;;11.30;99.90;;;;;;6150823;23;21299;-81
2021/04/10 02:35:53;;;;;;;14.03;11.90;;;11.30;99.90;;;;;;6145698;23;20457;-79
2021/04/10 02:39:39;;;;;;;13.87;11.53;;;11.00;99.90;;;;;;6163513;23;20410;-78
2021/04/10 02:42:24;;;;;;;14.83;11.80;;;11.40;99.90;;;;;;6143879;23;20399;-80
2021/04/10 02:45:23;;;;;;;14.83;12.33;;;11.40;99.90;;;;;;6169070;23;20991;-79
2021/04/10 02:48:14;;;;;;;13.93;12.23;;;11.40;99.90;;;;;;6152269;23;20501;-82
2021/04/10 02:51:09;;;;;;;20.20;12.87;;;11.10;99.90;;;;;;6150793;23;20407;-80
2021/04/10 02:53:48;;;;;;;14.23;12.27;;;11.20;99.90;;;;;;6184123;23;20493;-79
2021/04/10 02:56:45;;;;;;;13.17;11.77;;;11.10;99.90;;;;;;6167657;23;20425;-81
2021/04/10 03:03:19;;;;;;;17.77;12.93;;;11.30;99.90;;;;;;6164507;23;20430;-78
2021/04/10 03:06:49;;;;;;;14.23;12.73;;;11.30;99.90;;;;;;6149295;23;20402;-79
2021/04/10 03:09:57;;;;;;;;;;;;;;;;;;;;;
2021/04/10 03:13:02;;;;;;;15.23;13.43;;;11.40;99.90;;;;;;6177476;23;20430;-78
2021/04/10 03:16:01;;;;;;;15.50;14.00;;;11.30;99.90;;;;;;6175683;23;20575;-80
2021/04/10 03:18:57;;;;;;;16.23;14.57;;;11.30;99.90;;;;;;6156079;23;20409;-82
2021/04/10 03:21:46;;;;;;;17.07;15.37;;;11.40;99.90;;;;;;6178377;23;20449;-82
2021/04/10 03:25:03;;;;;;;16.63;15.03;;;11.40;99.90;;;;;;6155649;23;20488;-80
2021/04/10 03:27:53;;;;;;;16.60;14.77;;;11.20;99.90;;;;;;6178888;23;20473;-80
2021/04/10 03:30:46;;;;;;;14.13;12.80;;;11.00;99.90;;;;;;6178394;23;20418;-80
2021/04/10 03:33:39;;;;;;;14.60;13.20;;;11.10;99.90;;;;;;6181054;23;20461;-80
2021/04/10 03:36:40;;;;;;;17.10;15.40;;;11.30;99.90;;;;;;6177588;23;20926;-80
2021/04/10 03:39:29;;;;;;;15.33;13.83;;;11.00;99.90;;;;;;6179047;23;20398;-80
2021/04/10 03:42:47;;;;;;;16.23;13.20;;;11.00;99.90;;;;;;6178762;23;20750;-79
2021/04/10 03:45:34;;;;;;;14.13;12.27;;;11.00;99.90;;;;;;6154347;23;20512;-80
2021/04/10 03:48:26;;;;;;;14.17;12.40;;;11.00;99.90;;;;;;6179754;23;20476;-82
2021/04/10 03:51:15;;;;;;;14.63;13.10;;;11.00;99.90;;;;;;6179963;23;20406;-81
2021/04/10 03:54:32;;;;;;;13.70;12.27;;;10.90;99.90;;;;;;6178676;23;20472;-81
2021/04/10 03:57:15;;;;;;;14.90;11.97;;;10.90;99.90;;;;;;6155890;23;20476;-79
2021/04/10 04:03:36;;;;;;;15.10;12.10;;;10.80;99.90;;;;;;6168344;23;20432;-79
2021/04/10 04:06:12;;;;;;;14.20;12.23;;;10.80;99.90;;;;;;6164180;23;20956;-79
2021/04/10 04:09:25;;;;;;;13.07;11.77;;;10.70;99.90;;;;;;6186245;23;20442;-80
2021/04/10 04:15:19;;;;;;;15.50;12.50;;;10.80;99.90;;;;;;6061409;23;20433;-78
2021/04/10 04:18:00;;;;;;;13.87;12.40;;;11.10;99.90;;;;;;6078851;23;20414;-80
2021/04/10 04:21:02;;;;;;;13.70;12.33;;;11.40;99.90;;;;;;6074531;23;20417;-80
2021/04/10 04:23:47;;;;;;;15.00;13.00;;;11.50;99.90;;;;;;6077498;23;20476;-79
2021/04/10 04:26:34;;;;;;;15.47;13.70;;;11.50;99.90;;;;;;6052750;23;20409;-78
2021/04/10 04:29:37;;;;;;;14.27;12.77;;;11.30;99.90;;;;;;6070192;23;21083;-81
2021/04/10 04:32:47;;;;;;;14.10;12.60;;;11.10;99.90;;;;;;6072709;23;20437;-79
2021/04/10 04:35:46;;;;;;;18.23;15.53;;;11.20;99.90;;;;;;6059225;23;20481;-78
2021/04/10 04:38:30;;;;;;;21.90;19.50;;;11.20;99.90;;;;;;6083010;23;20421;-80
2021/04/10 04:41:17;;;;;;;;;;;;;;;;;;;;;
2021/04/10 04:44:13;;;;;;;22.63;19.07;;;11.60;99.90;;;;;;6052009;23;21164;-80
2021/04/10 04:47:36;;;;;;;24.37;21.23;;;11.60;99.90;;;;;;6077529;23;20409;-79
2021/04/10 04:50:40;;;;;;;25.43;22.83;;;11.60;99.90;;;;;;6089855;23;20436;-79
2021/04/10 04:53:33;;;;;;;25.57;22.80;;;11.40;99.90;;;;;;6101114;23;20433;-77
2021/04/10 04:56:20;;;;;;;27.67;23.87;;;11.40;99.90;;;;;;6089614;23;20420;-79
2021/04/10 05:02:29;;;;;;;25.13;22.43;;;11.00;99.90;;;;;;6106532;23;20420;-78
2021/04/10 05:05:15;;;;;;;26.67;22.43;;;11.00;99.90;;;;;;6086199;23;20420;-79
2021/04/10 05:08:18;;;;;;;;;;;;;;;;;;;;;
2021/04/10 05:14:21;;;;;;;32.13;24.20;;;11.10;99.90;;;;;;6115313;23;20425;-77
2021/04/10 05:17:14;;;;;;;31.60;24.60;;;10.90;99.90;;;;;;6094362;23;20412;-80
2021/04/10 05:20:19;;;;;;;31.77;22.43;;;10.80;99.90;;;;;;6095004;23;20399;-80
2021/04/10 05:23:06;;;;;;;26.70;22.50;;;10.70;99.90;;;;;;6087819;23;20596;-80
2021/04/10 05:30:04;;;;;;;26.37;22.73;;;10.90;99.90;;;;;;6068617;23;20406;-79
2021/04/10 05:34:44;;;;;;;;;;;;;;;;;;;;;
2021/04/10 05:40:24;;;;;;;30.23;25.50;;;10.70;99.90;;;;;;6060492;23;20425;-81
2021/04/10 05:43:27;;;;;;;35.17;26.00;;;10.60;99.90;;;;;;6067781;23;20447;-81
2021/04/10 05:49:27;;;;;;;30.33;25.23;;;10.80;99.90;;;;;;6069191;23;20417;-78
2021/04/10 05:53:28;;;;;;;31.90;25.70;;;10.70;99.90;;;;;;5988815;24;20985;-78
2021/04/10 05:56:33;;;;;;;33.87;27.70;;;10.70;99.90;;;;;;6097823;23;20829;-80
2021/04/10 05:59:34;;;;;;;36.03;24.80;;;10.70;99.90;;;;;;6106543;23;20626;-79
2021/04/10 06:02:58;;;;;;;30.83;24.40;;;10.70;99.90;;;;;;6085820;23;20409;-79
2021/04/10 06:05:46;;;;;;;32.00;26.53;;;10.70;99.90;;;;;;6101367;23;20471;-82
2021/04/10 06:08:55;;;;;;;32.30;25.87;;;10.70;99.90;;;;;;6081681;23;20902;-80
2021/04/10 06:11:48;;;;;;;35.07;27.40;;;10.70;99.90;;;;;;6079244;23;20445;-78
2021/04/10 06:15:00;;;;;;;33.17;26.30;;;10.80;99.90;;;;;;6097117;23;20432;-80
2021/04/10 06:18:04;;;;;;;38.00;25.80;;;10.80;99.90;;;;;;6043973;23;20429;-78
2021/04/10 06:21:16;;;;;;;32.27;25.67;;;10.80;99.90;;;;;;5930527;24;20414;-80
2021/04/10 06:24:28;;;;;;;29.53;25.50;;;10.70;99.90;;;;;;5901594;24;20437;-79
2021/04/10 06:27:28;;;;;;;32.13;25.10;;;10.80;99.90;;;;;;5901379;24;20518;-80
2021/04/10 06:30:05;;;;;;;32.90;24.70;;;10.80;99.90;;;;;;5936271;23;20403;-81
2021/04/10 06:32:40;;;;;;;32.70;25.27;;;10.90;99.90;;;;;;6006990;23;20431;-79
2021/04/10 06:35:40;;;;;;;33.47;24.70;;;10.80;99.90;;;;;;5984866;23;20779;-79
2021/04/10 06:38:25;;;;;;;31.80;25.77;;;10.70;99.90;;;;;;6007891;23;20473;-82
2021/04/10 06:41:25;;;;;;;30.93;25.10;;;10.60;99.90;;;;;;6007218;23;20431;-80
2021/04/10 06:44:15;;;;;;;30.70;25.73;;;10.70;99.90;;;;;;6020961;23;20438;-78
2021/04/10 06:47:43;;;;;;;28.87;23.30;;;10.90;99.90;;;;;;6120775;23;20470;-79
2021/04/10 06:50:26;;;;;;;32.67;24.33;;;11.30;99.90;;;;;;6122025;23;20422;-80
2021/04/10 06:53:27;;;;;;;;;;;;;;;;;;;;;
2021/04/10 06:56:33;;;;;;;31.10;24.23;;;11.20;99.90;;;;;;6138339;23;20753;-81
2021/04/10 06:59:44;;;;;;;28.03;22.80;;;11.30;99.90;;;;;;6172949;23;20508;-79
2021/04/10 07:02:21;;;;;;;33.53;25.40;;;11.40;99.90;;;;;;6195825;23;20406;-81
2021/04/10 07:05:00;;;;;;;31.00;23.17;;;11.60;99.90;;;;;;6195820;23;20491;-80
2021/04/10 07:08:07;;;;;;;28.80;23.03;;;11.70;99.90;;;;;;6192453;23;20450;-80
2021/04/10 07:11:05;;;;;;;28.40;21.73;;;12.00;99.90;;;;;;6185660;23;20489;-82
2021/04/10 07:13:53;;;;;;;24.57;19.73;;;12.30;99.90;;;;;;6183744;23;21186;-80
2021/04/10 07:17:06;;;;;;;22.37;18.47;;;12.50;99.90;;;;;;6189038;23;20433;-79
2021/04/10 07:20:00;;;;;;;20.40;17.57;;;12.40;99.90;;;;;;6198203;23;20476;-79
2021/04/10 07:23:08;;;;;;;20.63;18.33;;;12.30;99.90;;;;;;6077700;23;20409;-81
2021/04/10 07:25:58;;;;;;;21.30;18.50;;;12.10;99.90;;;;;;6069845;23;20452;-79
2021/04/10 07:29:17;;;;;;;;;;;;;;;;;;;;;
2021/04/10 07:35:47;;;;;;;20.00;16.90;;;12.20;99.90;;;;;;6124235;23;20371;-80
2021/04/10 07:38:59;;;;;;;19.57;17.47;;;12.50;99.90;;;;;;6105298;23;20416;-80
2021/04/10 07:41:40;;;;;;;20.33;17.87;;;12.70;99.90;;;;;;6095495;23;20783;-78
2021/04/10 07:44:49;;;;;;;23.77;19.03;;;12.60;99.90;;;;;;6158949;23;20458;-78
2021/04/10 07:47:46;;;;;;;24.60;18.70;;;12.40;99.90;;;;;;6159933;23;20850;-80
2021/04/10 07:53:38;;;;;;;23.83;19.53;;;12.10;99.90;;;;;;6160809;23;20430;-80
2021/04/10 07:56:39;;;;;;;23.27;18.33;;;12.30;99.90;;;;;;6139383;23;20399;-81
2021/04/10 07:59:45;;;;;;;22.47;19.33;;;12.10;99.90;;;;;;6129996;23;20426;-83
2021/04/10 08:02:45;;;;;;;21.90;18.67;;;12.20;99.90;;;;;;6129091;23;20900;-82
2021/04/10 08:05:45;;;;;;;21.20;18.47;;;12.10;99.90;;;;;;6144900;23;20403;-83
2021/04/10 08:09:00;;;;;;;24.10;18.47;;;12.10;99.90;;;;;;6150340;23;20446;-79
2021/04/10 08:11:58;;;;;;;22.47;18.60;;;12.00;99.90;;;;;;6166469;23;20414;-80
2021/04/10 08:14:54;;;;;;;21.83;19.43;;;12.00;99.90;;;;;;6167152;23;20458;-80
2021/04/10 08:17:58;;;;;;;19.43;15.80;;;11.90;99.90;;;;;;6072815;23;20404;-79
2021/04/10 08:21:07;;;;;;;;;;;;;;;;;;;;;
2021/04/10 08:23:50;;;;;;;24.30;19.10;;;11.90;99.90;;;;;;6151170;22;20461;-80
2021/04/10 08:27:09;;;;;;;;;;;;;;;;;;;;;
2021/04/10 08:30:40;;;;;;;19.90;17.80;;;12.10;99.90;;;;;;6217098;23;20502;-82
2021/04/10 08:33:32;;;;;;;22.73;18.97;;;12.30;99.90;;;;;;6137155;23;20500;-79
2021/04/10 08:43:47;;;;;;;23.40;20.33;;;12.40;99.90;;;;;;6161974;23;20448;-78
2021/04/10 08:46:46;;;;;;;24.07;21.53;;;12.60;99.90;;;;;;6220813;23;20432;-80
2021/04/10 08:49:47;;;;;;;21.23;19.00;;;12.60;99.90;;;;;;6194287;23;20416;-80
2021/04/10 08:53:20;;;;;;;20.77;18.70;;;12.90;99.90;;;;;;6179433;23;20397;-81
2021/04/10 08:57:03;;;;;;;19.20;17.20;;;13.00;99.90;;;;;;6175242;23;20392;-81
2021/04/10 08:59:54;;;;;;;18.80;17.00;;;13.00;99.90;;;;;;6206627;23;20625;-79
2021/04/10 09:02:59;;;;;;;17.43;15.67;;;12.90;99.90;;;;;;6156157;23;20409;-82
2021/04/10 09:06:03;;;;;;;17.87;16.17;;;12.80;99.90;;;;;;6234369;23;20407;-78
2021/04/10 09:08:57;;;;;;;18.27;16.37;;;13.10;99.90;;;;;;6203384;23;20933;-79
2021/04/10 09:11:52;;;;;;;18.60;16.27;;;13.50;99.90;;;;;;6203010;23;20417;-79
2021/04/10 09:15:15;;;;;;;16.40;14.27;;;13.70;99.90;;;;;;6197231;23;20472;-79
2021/04/10 09:18:41;;;;;;;16.63;14.73;;;13.70;99.90;;;;;;6230550;23;20405;-78
2021/04/10 09:29:22;;;;;;;16.17;14.57;;;13.80;99.90;;;;;;6208924;23;20465;-78
2021/04/10 09:36:05;;;;;;;;;;;;;;;;;;;;;
2021/04/10 09:39:10;;;;;;;14.50;13.10;;;13.60;99.90;;;;;;6229285;23;20427;-79
2021/04/10 09:43:14;;;;;;;13.90;12.60;;;13.40;99.90;;;;;;6201734;23;20749;-84
2021/04/10 09:46:14;;;;;;;;;;;;;;;;;;;;;
2021/04/10 09:54:14;;;;;;;;;;;;;;;;;;;;;
2021/04/10 10:00:22;;;;;;;11.07;9.97;;;13.60;99.50;;;;;;5718938;25;20408;-82
2021/04/10 10:03:28;;;;;;;11.13;10.03;;;13.70;98.90;;;;;;5841905;24;20431;-80
2021/04/10 10:11:13;;;;;;;10.90;9.80;;;13.40;99.70;;;;;;5817409;24;20409;-82
2021/04/10 10:15:04;;;;;;;12.87;11.10;;;13.40;99.50;;;;;;5738445;25;20431;-81
2021/04/10 10:17:55;;;;;;;11.20;10.00;;;13.30;99.60;;;;;;5741431;24;20406;-82
2021/04/10 10:21:41;;;;;;;11.17;10.03;;;13.40;99.10;;;;;;5819075;24;20381;-82
2021/04/10 10:24:35;;;;;;;10.50;9.47;;;13.10;99.30;;;;;;5923689;23;20438;-82
2021/04/10 10:28:12;;;;;;;11.20;10.00;;;12.60;99.90;;;;;;6037745;23;20502;-79
2021/04/10 10:31:25;;;;;;;9.00;8.20;;;12.50;99.90;;;;;;6066916;23;20875;-80
2021/04/10 10:34:33;;;;;;;10.60;8.50;;;12.80;99.90;;;;;;6094859;23;20464;-81
2021/04/10 10:37:29;;;;;;;10.87;9.87;;;12.50;99.90;;;;;;6042082;23;20410;-83
2021/04/10 10:44:39;;;;;;;;;;;;;;;;;;;;;
2021/04/10 10:51:03;;;;;;;8.97;8.07;;;12.80;99.90;;;;;;6088250;23;20452;-80
2021/04/10 10:54:00;;;;;;;12.23;9.87;;;12.50;99.90;;;;;;6090388;23;20477;-79
2021/04/10 10:57:50;;;;;;;;;;;;;;;;;;;;;
2021/04/10 11:00:58;;;;;;;10.47;9.37;;;13.10;99.90;;;;;;5990469;23;20407;-78
2021/04/10 11:04:30;;;;;;;;;;;;;;;;;;;;;
2021/04/10 11:08:05;;;;;;;9.93;8.97;;;13.10;99.80;;;;;;5896942;24;20393;-80
2021/04/10 11:15:48;;;;;;;9.50;8.67;;;12.90;99.90;;;;;;5877457;24;20432;-79
2021/04/10 11:27:38;;;;;;;11.50;10.40;;;12.80;99.90;;;;;;5920481;24;20425;-79
2021/04/10 11:31:46;;;;;;;15.07;13.67;;;12.90;99.90;;;;;;5824377;24;21025;-81
2021/04/10 11:35:19;;;;;;;16.13;14.47;;;12.80;99.90;;;;;;6075063;23;20494;-80
2021/04/10 11:38:20;;;;;;;16.33;14.63;;;12.70;99.90;;;;;;6161257;23;20417;-82
2021/04/10 11:50:06;;;;;;;17.93;12.70;;;12.60;99.90;;;;;;6062490;23;20493;-79
2021/04/10 12:01:58;;;;;;;;;;;;;;;;;;;;;
2021/04/10 12:22:35;;;;;;;13.30;11.07;;;12.30;99.90;;;;;;6091665;23;20797;-83
2021/04/10 12:26:43;;;;;;;;;;;;;;;;;;;;;
2021/04/10 12:30:45;;;;;;;;;;;;;;;;;;;;;
2021/04/10 12:37:21;;;;;;;16.27;11.30;;;12.40;99.90;;;;;;6109029;23;20404;-80
2021/04/10 12:51:47;;;;;;;12.47;10.90;;;12.50;99.90;;;;;;6091679;23;20360;-81
2021/04/10 12:55:29;;;;;;;;;;;;;;;;;;;;;
2021/04/10 13:02:22;;;;;;;14.23;11.67;;;12.30;99.90;;;;;;6158346;23;20926;-80
2021/04/10 13:09:06;;;;;;;12.50;11.17;;;12.40;99.90;;;;;;5939666;24;20490;-81
2021/04/10 13:14:14;;;;;;;;;;;;;;;;;;;;;
2021/04/10 13:24:32;;;;;;;;;;;;;;;;;;;;;
2021/04/10 13:31:34;;;;;;;12.20;11.00;;;12.00;99.90;;;;;;5916257;24;20553;-79
2021/04/10 13:35:15;;;;;;;12.97;10.90;;;12.10;99.90;;;;;;5837113;24;20529;-80
2021/04/10 13:37:52;;;;;;;13.30;11.90;;;12.40;99.90;;;;;;5784935;24;20411;-79
2021/04/10 13:48:40;;;;;;;;;;;;;;;;;;;;;
2021/04/10 14:14:18;;;;;;;14.70;12.07;;;11.80;99.90;;;;;;6089946;23;20406;-79
2021/04/10 14:30:01;;;;;;;;;;;;;;;;;;;;;
2021/04/10 14:52:05;;;;;;;13.77;11.03;;;12.00;99.90;;;;;;6120695;23;20408;-82
2021/04/10 14:55:26;;;;;;;;;;;;;;;;;;;;;
2021/04/10 14:58:38;;;;;;;12.80;11.60;;;12.00;99.90;;;;;;6123982;23;20419;-79
2021/04/10 15:07:18;;;;;;;;;;;;;;;;;;;;;
2021/04/10 15:10:46;;;;;;;10.80;9.80;;;12.00;99.90;;;;;;5950085;24;20429;-79
2021/04/10 15:18:21;;;;;;;11.20;10.20;;;11.80;99.90;;;;;;5993754;23;20951;-78
2021/04/10 15:25:28;;;;;;;;;;;;;;;;;;;;;
2021/04/10 15:28:58;;;;;;;;;;;;;;;;;;;;;
2021/04/10 15:38:40;;;;;;;14.30;10.70;;;12.50;99.90;;;;;;6178888;23;20481;-82
2021/04/10 15:42:07;;;;;;;10.60;9.60;;;12.20;99.90;;;;;;6106125;23;20456;-79
2021/04/10 15:45:16;;;;;;;8.33;7.53;;;12.30;99.90;;;;;;6070414;23;20478;-80
2021/04/10 15:48:26;;;;;;;10.40;9.40;;;12.40;99.90;;;;;;5958498;24;20504;-80
2021/04/10 15:51:14;;;;;;;8.70;7.90;;;12.20;99.90;;;;;;5959195;24;20428;-80
2021/04/10 15:58:29;;;;;;;8.10;7.37;;;12.10;99.90;;;;;;6070554;23;20425;-82
2021/04/10 16:01:54;;;;;;;;;;;;;;;;;;;;;
2021/04/10 16:04:49;;;;;;;7.60;6.90;;;12.30;99.90;;;;;;6038762;23;20462;-79
2021/04/10 16:07:36;;;;;;;7.23;6.53;;;12.10;99.90;;;;;;6048872;23;20416;-81
2021/04/10 16:11:11;;;;;;;7.30;6.70;;;12.20;99.90;;;;;;6164132;23;20430;-81
2021/04/10 16:14:54;;;;;;;7.17;6.47;;;12.10;99.90;;;;;;6117270;23;20415;-80
2021/04/10 16:18:14;;;;;;;6.77;5.87;;;12.30;99.90;;;;;;6042870;23;20395;-79
2021/04/10 16:21:16;;;;;;;6.50;5.90;;;12.30;99.90;;;;;;6020465;23;20458;-80
2021/04/10 16:24:15;;;;;;;5.30;4.80;;;12.20;99.90;;;;;;6008854;23;20505;-80
2021/04/10 16:27:31;;;;;;;6.17;5.57;;;12.30;99.90;;;;;;6031911;23;20513;-81
2021/04/10 16:30:49;;;;;;;4.13;3.83;;;12.30;99.90;;;;;;5973579;24;20432;-81
2021/04/10 16:41:12;;;;;;;4.27;3.70;;;12.70;99.90;;;;;;5933427;24;20382;-81
2021/04/10 16:44:43;;;;;;;3.33;3.13;;;12.80;99.90;;;;;;5973688;23;20884;-81
2021/04/10 16:48:07;;;;;;;4.10;3.50;;;12.70;99.90;;;;;;5908965;24;20509;-81
2021/04/10 16:54:49;;;;;;;3.43;3.13;;;12.80;99.90;;;;;;5977616;23;20438;-81
2021/04/10 16:57:46;;;;;;;3.57;3.27;;;12.50;99.90;;;;;;6060204;23;20540;-80
2021/04/10 17:00:45;;;;;;;3.80;3.30;;;12.70;99.90;;;;;;6063547;23;20413;-80
2021/04/10 17:07:19;;;;;;;3.63;3.33;;;12.50;99.90;;;;;;6174360;23;20473;-81
2021/04/10 17:10:48;;;;;;;3.70;3.37;;;12.70;99.90;;;;;;6043789;23;20403;-80
2021/04/10 17:13:56;;;;;;;4.30;3.47;;;12.60;99.90;;;;;;6056888;23;20510;-80
2021/04/10 17:17:43;;;;;;;3.87;3.47;;;12.40;99.90;;;;;;6055164;23;20390;-79
2021/04/10 17:20:51;;;;;;;3.87;3.43;;;12.60;99.90;;;;;;5945354;24;20393;-80
2021/04/10 17:31:40;;;;;;;4.27;3.90;;;12.20;99.90;;;;;;6164341;23;20430;-79
2021/04/10 17:43:10;;;;;;;3.00;2.70;;;12.30;99.90;;;;;;6004072;23;20452;-78
2021/04/10 17:49:51;;;;;;;4.33;3.90;;;12.30;99.90;;;;;;5952208;24;20794;-79
2021/04/10 17:53:32;;;;;;;;;;;;;;;;;;;;;
2021/04/10 17:56:15;;;;;;;4.03;3.63;;;12.30;99.90;;;;;;5945230;24;20425;-83
2021/04/10 17:59:29;;;;;;;3.97;3.60;;;12.20;99.90;;;;;;5925493;24;20425;-81
2021/04/10 18:07:14;;;;;;;;;;;;;;;;;;;;;
2021/04/10 18:14:53;;;;;;;;;;;;;;;;;;;;;
2021/04/10 18:18:06;;;;;;;3.87;3.57;;;12.30;99.90;;;;;;5786023;24;20939;-81
2021/04/10 18:21:43;;;;;;;;;;;;;;;;;;;;;
2021/04/10 18:24:13;;;;;;;4.40;4.00;;;12.30;99.90;;;;;;5789880;24;20445;-79
2021/04/10 18:27:58;;;;;;;4.60;4.17;;;12.30;99.90;;;;;;5891771;24;20425;-81
2021/04/10 18:33:57;;;;;;;4.33;4.03;;;12.30;99.90;;;;;;6026555;23;20438;-81
2021/04/10 18:37:14;;;;;;;4.10;3.80;;;12.20;99.90;;;;;;6012343;23;20530;-80
2021/04/10 18:41:07;;;;;;;3.70;3.40;;;12.10;99.90;;;;;;6068886;23;20885;-81
2021/04/10 18:44:07;;;;;;;4.63;4.13;;;12.30;99.90;;;;;;5948678;23;20944;-79
2021/04/10 18:47:05;;;;;;;4.83;4.40;;;12.20;99.90;;;;;;6014574;23;20445;-82
2021/04/10 18:58:11;;;;;;;3.93;3.63;;;12.30;99.90;;;;;;6180809;23;20401;-80
2021/04/10 19:01:40;;;;;;;4.33;3.93;;;12.40;99.90;;;;;;6089883;23;20409;-81
2021/04/10 19:04:58;;;;;;;5.33;4.70;;;12.40;99.90;;;;;;6039081;23;21060;-81
2021/04/10 19:07:55;;;;;;;4.43;4.03;;;12.30;99.90;;;;;;6039279;23;20429;-79
2021/04/10 19:11:37;;;;;;;;;;;;;;;;;;;;;
2021/04/10 19:14:52;;;;;;;4.70;4.23;;;12.20;99.90;;;;;;6094418;23;20451;-81
2021/04/10 19:18:26;;;;;;;8.03;5.00;;;12.30;99.90;;;;;;6064711;23;20435;-82
2021/04/10 19:21:34;;;;;;;5.43;4.93;;;12.30;99.90;;;;;;6094568;23;20376;-81
2021/04/10 19:28:38;;;;;;;4.30;3.90;;;12.50;99.90;;;;;;6174160;23;20417;-79
2021/04/10 19:31:51;;;;;;;5.07;4.67;;;12.50;99.90;;;;;;6108595;23;20440;-79
2021/04/10 19:38:29;;;;;;;4.60;4.20;;;12.40;99.90;;;;;;6145028;23;20403;-79
2021/04/10 19:41:48;;;;;;;4.43;4.07;;;12.40;99.90;;;;;;6120150;23;20420;-79
2021/04/10 19:45:02;;;;;;;5.40;4.90;;;12.50;99.90;;;;;;6147592;23;20815;-79
2021/04/10 19:47:38;;;;;;;4.40;4.00;;;12.40;99.90;;;;;;6086218;23;20504;-80
2021/04/10 19:51:18;;;;;;;5.10;4.60;;;12.30;99.90;;;;;;6164540;23;20955;-83
2021/04/10 19:57:46;;;;;;;;;;;;;;;;;;;;;
2021/04/10 20:00:50;;;;;;;6.20;5.60;;;12.20;99.90;;;;;;6108588;23;20444;-79
2021/04/10 20:04:22;;;;;;;;;;;;;;;;;;;;;
2021/04/10 20:07:42;;;;;;;5.43;4.97;;;12.10;99.90;;;;;;6101302;23;20392;-79
2021/04/10 20:11:15;;;;;;;;;;;;;;;;;;;;;
2021/04/10 20:26:54;;;;;;;5.43;4.93;;;12.10;99.90;;;;;;6122103;23;20419;-79
2021/04/10 20:33:36;;;;;;;6.67;5.30;;;12.00;99.90;;;;;;6093383;23;20502;-80
2021/04/10 20:40:40;;;;;;;;;;;;;;;;;;;;;
2021/04/10 20:47:53;;;;;;;6.03;5.53;;;12.10;99.90;;;;;;5976693;24;20400;-79
2021/04/10 20:51:38;;;;;;;;;;;;;;;;;;;;;
2021/04/10 20:55:19;;;;;;;;;;;;;;;;;;;;;
2021/04/10 21:01:42;;;;;;;9.90;5.87;;;12.10;99.90;;;;;;5862391;24;20493;-80
2021/04/10 21:05:22;;;;;;;5.23;4.83;;;12.20;99.90;;;;;;5882822;24;20418;-79
2021/04/10 21:08:40;;;;;;;5.30;4.73;;;12.00;99.90;;;;;;5855426;24;20514;-80
2021/04/10 21:12:15;;;;;;;6.00;5.37;;;12.20;99.90;;;;;;5792534;24;20431;-81
2021/04/10 21:22:16;;;;;;;;;;;;;;;;;;;;;
2021/04/10 21:29:47;;;;;;;6.43;5.80;;;12.10;99.90;;;;;;5864544;24;21121;-80
2021/04/10 21:32:48;;;;;;;6.43;5.83;;;12.10;99.90;;;;;;5904409;24;20453;-81
2021/04/10 21:36:09;;;;;;;6.03;5.53;;;12.00;99.90;;;;;;5914163;24;20874;-81
2021/04/10 21:39:30;;;;;;;;;;;;;;;;;;;;;
2021/04/10 21:48:50;;;;;;;6.17;5.63;;;12.10;99.90;;;;;;6127714;23;20951;-81
2021/04/10 21:51:53;;;;;;;7.90;6.60;;;12.10;99.90;;;;;;6178624;23;20413;-81
2021/04/10 21:58:45;;;;;;;6.13;5.63;;;12.00;99.90;;;;;;5970181;23;20422;-83
2021/04/10 22:02:12;;;;;;;10.53;6.93;;;12.00;99.90;;;;;;5979577;23;20524;-81
2021/04/10 22:05:08;;;;;;;9.30;6.60;;;11.90;99.90;;;;;;5917081;24;21113;-80
2021/04/10 22:08:51;;;;;;;7.07;5.73;;;12.00;99.90;;;;;;5856420;24;20886;-82
2021/04/10 22:12:30;;;;;;;;;;;;;;;;;;;;;
2021/04/10 22:16:38;;;;;;;5.40;5.00;;;11.90;99.90;;;;;;6034617;23;20409;-81
2021/04/10 22:19:34;;;;;;;6.10;5.40;;;11.90;99.90;;;;;;6062412;23;20460;-82
2021/04/10 22:22:33;;;;;;;6.60;5.97;;;12.00;99.90;;;;;;5997044;23;20403;-81
2021/04/10 22:25:20;;;;;;;5.27;4.87;;;12.00;99.90;;;;;;5977945;23;20478;-79
2021/04/10 22:28:56;;;;;;;;;;;;;;;;;;;;;
2021/04/10 22:32:03;;;;;;;;;;;;;;;;;;;;;
2021/04/10 22:35:47;;;;;;;8.17;6.30;;;12.10;99.90;;;;;;6091576;23;20486;-79
2021/04/10 22:46:10;;;;;;;5.20;4.70;;;12.00;99.90;;;;;;6095577;23;20375;-79
2021/04/10 22:49:16;;;;;;;5.37;4.80;;;12.10;99.90;;;;;;6105859;23;20451;-79
2021/04/10 23:14:46;;;;;;;6.53;3.90;;;12.20;99.90;;;;;;5987682;23;20434;-79
2021/04/10 23:18:16;;;;;;;4.77;3.40;;;12.10;99.90;;;;;;6012147;23;20492;-82
2021/04/10 23:25:07;;;;;;;3.90;3.53;;;12.40;99.90;;;;;;6049178;23;20466;-81
2021/04/10 23:44:00;;;;;;;;;;;;;;;;;;;;;
2021/04/10 23:47:49;;;;;;;;;;;;;;;;;;;;;
2021/04/10 23:51:25;;;;;;;4.33;3.93;;;12.70;99.90;;;;;;5803268;24;20417;-81
2021/04/10 23:54:12;;;;;;;4.80;4.10;;;12.70;99.90;;;;;;5803651;24;20422;-80
2021/04/10 23:57:48;;;;;;;3.40;3.20;;;12.60;99.90;;;;;;5759325;24;20473;-82
